Time;durP1;ratioP1;P1;durP2;ratioP2;P2;SDS_P1;SDS_P2;PMS_P1;PMS_P2;Temp;Humidity;BMP_temperature;BMP_pressure;BME280_temperature;BME280_humidity;BME280_pressure;Samples;Min_cycle;Max_cycle;Signal;HPM_P1;HPM_P2
2022/10/21 00:00:51;;;;;;;;;;;15.60;99.90;;;;;;5034491;28;19905;-71
2022/10/21 00:03:17;;;;;;;;;;;15.50;99.90;;;;;;5034616;28;19912;-71
2022/10/21 00:05:43;;;;;;;;;;;15.50;99.90;;;;;;5032979;28;19995;-70
2022/10/21 00:08:08;;;;;;;;;;;15.50;99.90;;;;;;5034337;28;20001;-72
2022/10/21 00:10:34;;;;;;;;;;;15.40;99.90;;;;;;5034074;28;19905;-70
2022/10/21 00:12:59;;;;;;;;;;;15.50;99.90;;;;;;5034450;28;20362;-71
2022/10/21 00:15:25;;;;;;;;;;;15.50;99.90;;;;;;5034160;28;19909;-71
2022/10/21 00:17:50;;;;;;;;;;;15.50;99.90;;;;;;5033700;28;19954;-71
2022/10/21 00:20:16;;;;;;;;;;;15.50;99.90;;;;;;5032657;28;20006;-70
2022/10/21 00:22:42;;;;;;;;;;;15.50;99.90;;;;;;5033890;28;19905;-70
2022/10/21 00:25:07;;;;;;;;;;;15.60;99.90;;;;;;5034017;28;19905;-71
2022/10/21 00:27:33;;;;;;;;;;;15.50;99.90;;;;;;5034137;28;19905;-71
2022/10/21 00:29:58;;;;;;;;;;;15.50;99.90;;;;;;5034155;28;19906;-70
2022/10/21 00:32:24;;;;;;;;;;;15.60;99.90;;;;;;5033645;28;20350;-71
2022/10/21 00:34:49;;;;;;;;;;;15.50;99.90;;;;;;5034138;28;19905;-70
2022/10/21 00:37:16;;;;;;;;;;;15.60;99.90;;;;;;5032843;28;19905;-69
2022/10/21 00:39:41;;;;;;;;;;;15.70;99.90;;;;;;5033614;28;20309;-70
2022/10/21 00:42:12;;;;;;;;;;;15.50;99.90;;;;;;5033479;28;19935;-69
2022/10/21 00:44:39;;;;;;;;;;;15.50;99.90;;;;;;5033687;28;19962;-70
2022/10/21 00:47:06;;;;;;;;;;;15.50;99.90;;;;;;5033957;28;19912;-70
2022/10/21 00:49:48;;;;;;;;;;;15.60;99.90;;;;;;5034989;28;19905;-70
2022/10/21 00:52:17;;;;;;;;;;;15.50;99.90;;;;;;5033567;28;19955;-71
2022/10/21 00:54:43;;;;;;;;;;;15.50;99.90;;;;;;5033584;28;19905;-71
2022/10/21 00:57:09;;;;;;;;;;;15.40;99.90;;;;;;5033405;28;19963;-70
2022/10/21 00:59:36;;;;;;;;;;;15.50;99.90;;;;;;5032057;28;19916;-70
2022/10/21 01:02:02;;;;;;;;;;;15.60;99.90;;;;;;5036200;28;20285;-71
2022/10/21 01:04:28;;;;;;;;;;;15.60;99.90;;;;;;5037363;28;19909;-71
2022/10/21 01:06:54;;;;;;;;;;;15.60;99.90;;;;;;5035785;28;19905;-70
2022/10/21 01:09:20;;;;;;;;;;;15.50;99.90;;;;;;5035609;28;19905;-70
2022/10/21 01:11:46;;;;;;;;;;;15.50;99.90;;;;;;5035667;28;19905;-70
2022/10/21 01:14:21;;;;;;;;;;;15.40;99.90;;;;;;5052933;28;19906;-71
2022/10/21 01:16:46;;;;;;;;;;;15.40;99.90;;;;;;5036980;28;19909;-71
2022/10/21 01:19:14;;;;;;;;;;;15.30;99.90;;;;;;5036566;28;19958;-70
2022/10/21 01:21:42;;;;;;;;;;;15.40;99.90;;;;;;5035502;28;19905;-70
2022/10/21 01:24:28;;;;;;;;;;;15.40;99.90;;;;;;5035700;28;19909;-70
2022/10/21 01:27:12;;;;;;;;;;;15.30;99.90;;;;;;5016165;28;20047;-70
2022/10/21 01:29:40;;;;;;;;;;;15.20;99.90;;;;;;5036853;28;20018;-69
2022/10/21 01:32:09;;;;;;;;;;;15.20;99.90;;;;;;5034856;28;19919;-70
2022/10/21 01:34:44;;;;;;;;;;;15.30;99.90;;;;;;5036999;28;19905;-70
2022/10/21 01:37:09;;;;;;;;;;;15.40;99.90;;;;;;5036748;28;19905;-69
2022/10/21 01:39:38;;;;;;;;;;;15.40;99.90;;;;;;5035397;28;20007;-70
2022/10/21 01:42:13;;;;;;;;;;;15.30;99.90;;;;;;5035196;28;19905;-69
2022/10/21 01:44:48;;;;;;;;;;;15.20;99.90;;;;;;5036418;28;19936;-70
2022/10/21 01:47:16;;;;;;;;;;;15.20;99.90;;;;;;5035068;28;19912;-70
2022/10/21 01:49:48;;;;;;;;;;;15.20;99.90;;;;;;5036654;28;19904;-71
2022/10/21 01:52:15;;;;;;;;;;;15.20;99.90;;;;;;5036806;28;19905;-70
2022/10/21 01:54:42;;;;;;;;;;;15.20;99.90;;;;;;5036342;28;20312;-70
2022/10/21 01:57:09;;;;;;;;;;;15.20;99.90;;;;;;5034976;28;19916;-70
2022/10/21 01:59:36;;;;;;;;;;;15.20;99.90;;;;;;5034787;28;19992;-70
2022/10/21 02:02:03;;;;;;;;;;;15.20;99.90;;;;;;5051284;28;19912;-70
2022/10/21 02:04:30;;;;;;;;;;;15.20;99.90;;;;;;5035123;28;19955;-71
2022/10/21 02:06:55;;;;;;;;;;;15.30;99.90;;;;;;5035104;28;19905;-71
2022/10/21 02:09:21;;;;;;;;;;;15.30;99.90;;;;;;5036345;28;19912;-70
2022/10/21 02:11:49;;;;;;;;;;;15.30;99.90;;;;;;5036145;28;19928;-70
2022/10/21 02:14:20;;;;;;;;;;;15.40;99.90;;;;;;5036637;28;19905;-70
2022/10/21 02:16:47;;;;;;;;;;;15.30;99.90;;;;;;5036846;28;19932;-70
2022/10/21 02:19:13;;;;;;;;;;;15.30;99.90;;;;;;5036192;28;19909;-70
2022/10/21 02:21:39;;;;;;;;;;;15.30;99.90;;;;;;5035918;28;19905;-70
2022/10/21 02:24:10;;;;;;;;;;;15.40;99.90;;;;;;5037579;28;20004;-70
2022/10/21 02:26:36;;;;;;;;;;;15.30;99.90;;;;;;5035067;28;20310;-69
2022/10/21 02:29:01;;;;;;;;;;;15.20;99.90;;;;;;5036412;28;19955;-70
2022/10/21 02:31:33;;;;;;;;;;;15.20;99.90;;;;;;5043501;28;19917;-72
2022/10/21 02:34:06;;;;;;;;;;;15.10;99.90;;;;;;5043057;28;19933;-71
2022/10/21 02:36:46;;;;;;;;;;;15.10;99.90;;;;;;5041021;28;19905;-71
2022/10/21 02:39:16;;;;;;;;;;;15.10;99.90;;;;;;5045403;28;19948;-70
2022/10/21 02:41:43;;;;;;;;;;;15.30;99.90;;;;;;5045672;28;19912;-70
2022/10/21 02:44:08;;;;;;;;;;;15.20;99.90;;;;;;5044394;28;19916;-70
2022/10/21 02:46:40;;;;;;;;;;;15.10;99.90;;;;;;5043634;28;19905;-70
2022/10/21 02:49:05;;;;;;;;;;;15.10;99.90;;;;;;5039591;28;20405;-71
2022/10/21 02:51:31;;;;;;;;;;;15.00;99.90;;;;;;5040809;28;19951;-71
2022/10/21 02:53:56;;;;;;;;;;;14.90;99.90;;;;;;5043679;28;19979;-70
2022/10/21 02:56:22;;;;;;;;;;;15.20;99.90;;;;;;5039954;28;19905;-70
2022/10/21 02:58:47;;;;;;;;;;;15.20;99.90;;;;;;5036406;28;19916;-71
2022/10/21 03:01:13;;;;;;;;;;;15.30;99.90;;;;;;5035417;28;20381;-70
2022/10/21 03:03:38;;;;;;;;;;;15.30;99.90;;;;;;5034833;28;19905;-69
2022/10/21 03:06:04;;;;;;;;;;;15.10;99.90;;;;;;5035206;28;19940;-70
2022/10/21 03:08:29;;;;;;;;;;;15.10;99.90;;;;;;5050771;28;19905;-70
2022/10/21 03:10:55;;;;;;;;;;;15.10;99.90;;;;;;5033756;28;19905;-71
2022/10/21 03:13:21;;;;;;;;;;;15.10;99.90;;;;;;5036676;28;20469;-71
2022/10/21 03:15:47;;;;;;;;;;;15.20;99.90;;;;;;5036040;28;19944;-70
2022/10/21 03:18:12;;;;;;;;;;;15.30;99.90;;;;;;5033680;28;19905;-71
2022/10/21 03:20:38;;;;;;;;;;;15.40;99.90;;;;;;5035091;28;20388;-71
2022/10/21 03:23:03;;;;;;;;;;;15.40;99.90;;;;;;5034728;28;19905;-71
2022/10/21 03:25:29;;;;;;;;;;;15.20;99.90;;;;;;5034816;28;19905;-71
2022/10/21 03:27:54;;;;;;;;;;;15.10;99.90;;;;;;5034572;28;19995;-71
2022/10/21 03:30:20;;;;;;;;;;;15.00;99.90;;;;;;5033295;28;19909;-70
2022/10/21 03:32:45;;;;;;;;;;;15.10;99.90;;;;;;5034317;28;19905;-71
2022/10/21 03:35:10;;;;;;;;;;;15.00;99.90;;;;;;5034532;28;20343;-70
2022/10/21 03:37:36;;;;;;;;;;;15.00;99.90;;;;;;5034479;28;20327;-71
2022/10/21 03:40:02;;;;;;;;;;;15.00;99.90;;;;;;5034428;28;20278;-68
2022/10/21 03:42:27;;;;;;;;;;;14.90;99.90;;;;;;5034026;28;20077;-68
2022/10/21 03:44:53;;;;;;;;;;;14.90;99.90;;;;;;5034195;28;19905;-68
2022/10/21 03:47:18;;;;;;;;;;;14.90;99.90;;;;;;5034139;28;20361;-68
2022/10/21 03:49:44;;;;;;;;;;;15.10;99.90;;;;;;5034112;28;19964;-67
2022/10/21 03:52:09;;;;;;;;;;;14.90;99.90;;;;;;5034113;28;19905;-67
2022/10/21 03:54:34;;;;;;;;;;;15.00;99.90;;;;;;5034075;28;19912;-68
2022/10/21 03:57:00;;;;;;;;;;;15.00;99.90;;;;;;5034022;28;19995;-67
2022/10/21 03:59:25;;;;;;;;;;;15.00;99.90;;;;;;5034144;28;19936;-67
2022/10/21 04:01:51;;;;;;;;;;;15.00;99.90;;;;;;5032778;28;19905;-67
2022/10/21 04:04:16;;;;;;;;;;;15.00;99.90;;;;;;5032464;28;19905;-67
2022/10/21 04:06:42;;;;;;;;;;;15.00;99.90;;;;;;5033927;28;19905;-68
2022/10/21 04:09:07;;;;;;;;;;;15.00;99.90;;;;;;5033877;28;19909;-67
2022/10/21 04:11:33;;;;;;;;;;;15.00;99.90;;;;;;5034317;28;19905;-67
2022/10/21 04:13:58;;;;;;;;;;;14.90;99.90;;;;;;5033856;28;19905;-68
2022/10/21 04:16:24;;;;;;;;;;;15.00;99.90;;;;;;5034135;28;19912;-68
2022/10/21 04:18:49;;;;;;;;;;;15.00;99.90;;;;;;5033634;28;19916;-67
2022/10/21 04:21:15;;;;;;;;;;;15.20;99.90;;;;;;5033790;28;19905;-68
2022/10/21 04:23:40;;;;;;;;;;;15.30;99.90;;;;;;5033022;28;19959;-67
2022/10/21 04:26:06;;;;;;;;;;;15.30;99.90;;;;;;5033752;28;19905;-67
2022/10/21 04:28:32;;;;;;;;;;;15.40;99.90;;;;;;5032556;28;20376;-67
2022/10/21 04:30:57;;;;;;;;;;;15.30;99.90;;;;;;5033613;28;20142;-68
2022/10/21 04:33:24;;;;;;;;;;;15.30;99.90;;;;;;5032984;28;19909;-74
2022/10/21 04:35:49;;;;;;;;;;;15.30;99.90;;;;;;5035922;28;19905;-74
2022/10/21 04:38:15;;;;;;;;;;;15.20;99.90;;;;;;5022294;28;20440;-69
2022/10/21 04:40:40;;;;;;;;;;;15.20;99.90;;;;;;5017141;28;19960;-69
2022/10/21 04:43:06;;;;;;;;;;;15.20;99.90;;;;;;5016910;28;19905;-69
2022/10/21 04:45:32;;;;;;;;;;;15.30;99.90;;;;;;5018105;28;19905;-69
2022/10/21 04:47:57;;;;;;;;;;;15.40;99.90;;;;;;5017123;28;20366;-69
2022/10/21 04:50:22;;;;;;;;;;;15.30;99.90;;;;;;5016548;28;19906;-72
2022/10/21 04:52:48;;;;;;;;;;;15.20;99.90;;;;;;5018345;28;19909;-70
2022/10/21 04:55:13;;;;;;;;;;;15.10;99.90;;;;;;5016372;28;19906;-69
2022/10/21 04:57:39;;;;;;;;;;;15.00;99.90;;;;;;5017977;28;19905;-68
2022/10/21 05:00:05;;;;;;;;;;;14.90;99.90;;;;;;5018309;28;19909;-70
2022/10/21 05:02:31;;;;;;;;;;;14.90;99.90;;;;;;5036060;28;19905;-67
2022/10/21 05:04:56;;;;;;;;;;;15.00;99.90;;;;;;5037610;28;20353;-67
2022/10/21 05:07:22;;;;;;;;;;;15.10;99.90;;;;;;5053762;28;19905;-68
2022/10/21 05:09:47;;;;;;;;;;;15.10;99.90;;;;;;5038470;28;19996;-67
2022/10/21 05:12:12;;;;;;;;;;;15.10;99.90;;;;;;5038249;28;20006;-67
2022/10/21 05:14:38;;;;;;;;;;;15.20;99.90;;;;;;5037585;28;19909;-67
2022/10/21 05:17:03;;;;;;;;;;;15.20;99.90;;;;;;5037169;28;20373;-68
2022/10/21 05:19:29;;;;;;;;;;;15.10;99.90;;;;;;5036992;28;20006;-66
2022/10/21 05:21:54;;;;;;;;;;;15.10;99.90;;;;;;5035817;28;19912;-66
2022/10/21 05:24:20;;;;;;;;;;;15.00;99.90;;;;;;5036979;28;19995;-67
2022/10/21 05:26:45;;;;;;;;;;;14.90;99.90;;;;;;5035591;28;19905;-68
2022/10/21 05:29:11;;;;;;;;;;;14.90;99.90;;;;;;5037084;28;19917;-68
2022/10/21 05:31:36;;;;;;;;;;;14.90;99.90;;;;;;5026386;28;20009;-68
2022/10/21 05:34:02;;;;;;;;;;;14.80;99.90;;;;;;5043550;23;19928;-62
2022/10/21 05:36:27;;;;;;;;;;;14.90;99.90;;;;;;5036627;28;19909;-62
2022/10/21 05:38:53;;;;;;;;;;;14.90;99.90;;;;;;5035471;28;19909;-64
2022/10/21 05:41:18;;;;;;;;;;;14.80;99.90;;;;;;5036673;28;20340;-64
2022/10/21 05:43:44;;;;;;;;;;;14.80;99.90;;;;;;5036732;28;19905;-63
2022/10/21 05:46:09;;;;;;;;;;;14.80;99.90;;;;;;5036683;28;19905;-64
2022/10/21 05:48:35;;;;;;;;;;;14.80;99.90;;;;;;5035595;28;19905;-64
2022/10/21 05:51:01;;;;;;;;;;;14.80;99.90;;;;;;5036382;28;19915;-64
2022/10/21 05:53:27;;;;;;;;;;;14.80;99.90;;;;;;5035610;28;19905;-64
2022/10/21 05:56:18;;;;;;;;;;;14.80;99.90;;;;;;5036551;28;19912;-66
2022/10/21 05:58:44;;;;;;;;;;;14.80;99.90;;;;;;5034836;28;19924;-66
2022/10/21 06:01:10;;;;;;;;;;;14.90;99.90;;;;;;5037143;28;19905;-65
2022/10/21 06:03:35;;;;;;;;;;;14.90;99.90;;;;;;5036604;28;19905;-66
2022/10/21 06:06:02;;;;;;;;;;;14.90;99.90;;;;;;5036881;28;19909;-66
2022/10/21 06:08:28;;;;;;;;;;;14.90;99.90;;;;;;5035625;28;19919;-65
2022/10/21 06:11:00;;;;;;;;;;;14.90;99.90;;;;;;5035172;28;19905;-65
2022/10/21 06:13:26;;;;;;;;;;;14.80;99.90;;;;;;5035989;28;19928;-65
2022/10/21 06:15:51;;;;;;;;;;;14.80;99.90;;;;;;5036030;28;20365;-66
2022/10/21 06:18:17;;;;;;;;;;;14.90;99.90;;;;;;5035735;28;19972;-65
2022/10/21 06:20:42;;;;;;;;;;;14.90;99.90;;;;;;5036355;28;19964;-68
2022/10/21 06:23:08;;;;;;;;;;;14.90;99.90;;;;;;5036194;28;19905;-68
2022/10/21 06:25:33;;;;;;;;;;;15.00;99.90;;;;;;5038085;28;20317;-69
2022/10/21 06:27:59;;;;;;;;;;;14.90;99.90;;;;;;5037876;28;19905;-68
2022/10/21 06:30:24;;;;;;;;;;;14.90;99.90;;;;;;5035760;28;19935;-69
2022/10/21 06:32:50;;;;;;;;;;;15.00;99.90;;;;;;5035399;28;19920;-69
2022/10/21 06:35:15;;;;;;;;;;;15.10;99.90;;;;;;5035262;28;19905;-69
2022/10/21 06:37:41;;;;;;;;;;;15.10;99.90;;;;;;5035299;28;19909;-69
2022/10/21 06:40:07;;;;;;;;;;;15.20;99.90;;;;;;5035165;28;19916;-69
2022/10/21 06:42:32;;;;;;;;;;;15.30;99.90;;;;;;5033865;28;19963;-70
2022/10/21 06:44:58;;;;;;;;;;;15.30;99.90;;;;;;5033914;28;20342;-70
2022/10/21 06:47:23;;;;;;;;;;;15.30;99.90;;;;;;5035437;28;19927;-68
2022/10/21 06:49:49;;;;;;;;;;;15.20;99.90;;;;;;5033614;28;19911;-67
2022/10/21 06:52:14;;;;;;;;;;;15.20;99.90;;;;;;5034812;28;20301;-68
2022/10/21 06:54:40;;;;;;;;;;;15.10;99.90;;;;;;5033693;28;19905;-68
2022/10/21 06:57:05;;;;;;;;;;;15.00;99.90;;;;;;5033915;28;19997;-69
2022/10/21 06:59:31;;;;;;;;;;;15.20;99.90;;;;;;5033380;28;19913;-68
2022/10/21 07:01:56;;;;;;;;;;;15.30;99.90;;;;;;5034997;28;19912;-69
2022/10/21 07:04:22;;;;;;;;;;;15.30;99.90;;;;;;5033274;28;20346;-71
2022/10/21 07:06:48;;;;;;;;;;;15.30;99.90;;;;;;5033472;28;19943;-71
2022/10/21 07:09:14;;;;;;;;;;;15.30;99.90;;;;;;5034807;28;19991;-71
2022/10/21 07:11:39;;;;;;;;;;;15.20;99.90;;;;;;5034769;28;19905;-71
2022/10/21 07:14:06;;;;;;;;;;;15.20;99.90;;;;;;5034543;28;19905;-72
2022/10/21 07:16:35;;;;;;;;;;;15.10;99.90;;;;;;5034724;28;20004;-72
2022/10/21 07:19:00;;;;;;;;;;;15.10;99.90;;;;;;5033119;28;19916;-71
2022/10/21 07:21:27;;;;;;;;;;;15.00;99.90;;;;;;5034309;28;19905;-69
2022/10/21 07:23:53;;;;;;;;;;;15.00;99.90;;;;;;5034135;28;19912;-70
2022/10/21 07:26:19;;;;;;;;;;;15.10;99.90;;;;;;5032900;28;20358;-68
2022/10/21 07:28:46;;;;;;;;;;;15.10;99.90;;;;;;5032876;28;19950;-72
2022/10/21 07:31:18;;;;;;;;;;;15.00;99.90;;;;;;5033021;28;19909;-68
2022/10/21 07:33:44;;;;;;;;;;;15.00;99.90;;;;;;5032566;28;20324;-66
2022/10/21 07:36:12;;;;;;;;;;;15.00;99.90;;;;;;5034249;28;20017;-65
2022/10/21 07:38:38;;;;;;;;;;;15.10;99.90;;;;;;5033792;28;20284;-65
2022/10/21 07:41:04;;;;;;;;;;;15.10;99.90;;;;;;5033906;28;19905;-64
2022/10/21 07:43:30;;;;;;;;;;;15.10;99.90;;;;;;5032694;28;20015;-64
2022/10/21 07:45:57;;;;;;;;;;;15.20;99.90;;;;;;5032637;28;19905;-66
2022/10/21 07:48:22;;;;;;;;;;;15.30;99.90;;;;;;5034049;28;19909;-67
2022/10/21 07:50:48;;;;;;;;;;;15.40;99.90;;;;;;5033505;28;19959;-67
2022/10/21 07:53:14;;;;;;;;;;;15.30;99.90;;;;;;5033651;28;19909;-66
2022/10/21 07:55:39;;;;;;;;;;;15.40;99.90;;;;;;5033748;28;19905;-67
2022/10/21 07:58:04;;;;;;;;;;;15.40;99.90;;;;;;5034047;28;20004;-66
2022/10/21 08:00:30;;;;;;;;;;;15.30;99.90;;;;;;5033942;28;20281;-67
2022/10/21 08:02:56;;;;;;;;;;;15.50;99.90;;;;;;5034932;28;19928;-67
2022/10/21 08:05:21;;;;;;;;;;;15.60;99.90;;;;;;5033604;28;19916;-67
2022/10/21 08:07:47;;;;;;;;;;;15.70;99.90;;;;;;5033694;28;19912;-67
2022/10/21 08:10:13;;;;;;;;;;;15.50;99.90;;;;;;5033144;28;19905;-67
2022/10/21 08:12:38;;;;;;;;;;;15.50;99.90;;;;;;5033758;28;19905;-64
2022/10/21 08:15:04;;;;;;;;;;;15.40;99.90;;;;;;5033604;28;19999;-65
2022/10/21 08:17:29;;;;;;;;;;;15.50;99.90;;;;;;5032627;28;20358;-66
2022/10/21 08:19:55;;;;;;;;;;;15.60;99.90;;;;;;5033387;28;19909;-67
2022/10/21 08:22:21;;;;;;;;;;;15.50;99.90;;;;;;5032147;28;19916;-66
2022/10/21 08:24:46;;;;;;;;;;;15.30;99.90;;;;;;5033735;28;19940;-64
2022/10/21 08:27:12;;;;;;;;;;;15.30;99.90;;;;;;5032576;28;19928;-64
2022/10/21 08:29:37;;;;;;;;;;;15.30;99.90;;;;;;5033449;28;20309;-64
2022/10/21 08:32:03;;;;;;;;;;;15.40;99.90;;;;;;5031895;28;19948;-64
2022/10/21 08:34:28;;;;;;;;;;;15.50;99.90;;;;;;5033034;28;19917;-65
2022/10/21 08:36:54;;;;;;;;;;;15.50;99.90;;;;;;5033588;28;19905;-64
2022/10/21 08:39:19;;;;;;;;;;;15.50;99.90;;;;;;5033158;28;19909;-65
2022/10/21 08:41:51;;;;;;;;;;;15.50;99.90;;;;;;5032045;28;20004;-65
2022/10/21 08:44:26;;;;;;;;;;;15.50;99.90;;;;;;5031842;28;19959;-64
2022/10/21 08:47:03;;;;;;;;;;;15.50;99.90;;;;;;5032990;28;19980;-63
2022/10/21 08:49:37;;;;;;;;;;;15.40;99.90;;;;;;5032875;28;19931;-64
2022/10/21 08:52:05;;;;;;;;;;;15.30;99.90;;;;;;5032473;28;20246;-64
2022/10/21 08:54:36;;;;;;;;;;;15.40;99.90;;;;;;5033245;28;19912;-64
2022/10/21 08:57:01;;;;;;;;;;;15.40;99.90;;;;;;5033190;28;20392;-64
2022/10/21 08:59:27;;;;;;;;;;;15.40;99.90;;;;;;5033196;28;19909;-65
2022/10/21 09:01:54;;;;;;;;;;;15.50;99.90;;;;;;5033609;28;19905;-65
2022/10/21 09:04:30;;;;;;;;;;;15.50;99.90;;;;;;5032548;28;19911;-65
2022/10/21 09:06:55;;;;;;;;;;;15.40;99.90;;;;;;5033467;28;19916;-64
2022/10/21 09:09:25;;;;;;;;;;;15.40;99.90;;;;;;5032105;28;19909;-65
2022/10/21 09:11:53;;;;;;;;;;;15.40;99.90;;;;;;5031605;28;19908;-64
2022/10/21 09:14:42;;;;;;;;;;;15.40;99.90;;;;;;5033192;28;19917;-63
2022/10/21 09:17:29;;;;;;;;;;;15.40;99.90;;;;;;5032749;28;19928;-63
2022/10/21 09:20:06;;;;;;;;;;;15.40;99.90;;;;;;5033024;28;20012;-64
2022/10/21 09:22:35;;;;;;;;;;;15.50;99.90;;;;;;5035707;28;19908;-64
2022/10/21 09:25:01;;;;;;;;;;;15.60;99.90;;;;;;5036742;28;19919;-65
2022/10/21 09:27:26;;;;;;;;;;;15.50;99.90;;;;;;5036766;28;20365;-64
2022/10/21 09:29:55;;;;;;;;;;;15.60;99.90;;;;;;5035204;28;19912;-66
2022/10/21 09:32:21;;;;;;;;;;;15.80;99.90;;;;;;5036201;28;20368;-66
2022/10/21 09:34:59;;;;;;;;;;;15.70;99.90;;;;;;5036005;28;19940;-65
2022/10/21 09:37:29;;;;;;;;;;;15.80;99.90;;;;;;5036608;28;19905;-65
2022/10/21 09:39:58;;;;;;;;;;;16.00;99.90;;;;;;5036336;28;20366;-66
2022/10/21 09:42:24;;;;;;;;;;;16.10;99.90;;;;;;5036080;28;19905;-66
2022/10/21 09:44:49;;;;;;;;;;;16.10;99.90;;;;;;5036164;28;20320;-66
2022/10/21 09:47:20;;;;;;;;;;;16.00;99.90;;;;;;5036264;28;19948;-68
2022/10/21 09:49:47;;;;;;;;;;;16.00;99.90;;;;;;5036229;28;19973;-68
2022/10/21 09:52:13;;;;;;;;;;;16.00;99.90;;;;;;5034905;28;20277;-68
2022/10/21 09:54:40;;;;;;;;;;;16.00;99.90;;;;;;5034873;28;20376;-68
2022/10/21 09:57:14;;;;;;;;;;;16.10;99.90;;;;;;5036021;28;19909;-68
2022/10/21 09:59:57;;;;;;;;;;;16.20;99.90;;;;;;5034558;28;20387;-67
2022/10/21 10:02:25;;;;;;;;;;;16.20;99.90;;;;;;5034812;28;20274;-67
2022/10/21 10:04:51;;;;;;;;;;;16.30;99.90;;;;;;5034599;28;20004;-68
2022/10/21 10:07:19;;;;;;;;;;;16.30;99.90;;;;;;5035964;28;19970;-68
2022/10/21 10:09:45;;;;;;;;;;;16.30;99.90;;;;;;5034526;28;19966;-68
2022/10/21 10:12:12;;;;;;;;;;;16.30;99.90;;;;;;5036126;28;19916;-68
2022/10/21 10:14:39;;;;;;;;;;;16.50;99.90;;;;;;5034332;28;19909;-68
2022/10/21 10:17:18;;;;;;;;;;;16.50;99.90;;;;;;5035603;28;19912;-69
2022/10/21 10:20:03;;;;;;;;;;;16.60;99.90;;;;;;5035389;28;19909;-69
2022/10/21 10:22:34;;;;;;;;;;;16.60;99.90;;;;;;5035524;28;19905;-69
2022/10/21 10:25:17;;;;;;;;;;;16.70;99.90;;;;;;5034260;28;19911;-69
2022/10/21 10:27:53;;;;;;;;;;;16.70;99.90;;;;;;5034008;28;19905;-69
2022/10/21 10:30:19;;;;;;;;;;;16.70;99.90;;;;;;5035617;28;20304;-69
2022/10/21 10:32:45;;;;;;;;;;;16.80;99.90;;;;;;5034957;28;19963;-69
2022/10/21 10:35:19;;;;;;;;;;;16.90;99.90;;;;;;5036035;28;20021;-68
2022/10/21 10:37:46;;;;;;;;;;;17.00;99.90;;;;;;5036431;28;19948;-68
2022/10/21 10:40:16;;;;;;;;;;;17.10;99.90;;;;;;5037862;28;20277;-68
2022/10/21 10:42:43;;;;;;;;;;;17.10;99.90;;;;;;5038340;28;19963;-67
2022/10/21 10:45:13;;;;;;;;;;;17.20;99.90;;;;;;5035720;28;19912;-66
2022/10/21 10:47:45;;;;;;;;;;;17.30;99.90;;;;;;5035974;28;19905;-65
2022/10/21 10:50:29;;;;;;;;;;;17.30;99.90;;;;;;5034663;28;19905;-67
2022/10/21 10:53:13;;;;;;;;;;;17.30;99.90;;;;;;5034927;28;19905;-67
2022/10/21 10:55:41;;;;;;;;;;;17.40;99.90;;;;;;5035408;28;19911;-68
2022/10/21 10:58:07;;;;;;;;;;;17.50;99.90;;;;;;5035551;28;19999;-65
2022/10/21 11:00:37;;;;;;;;;;;17.50;99.90;;;;;;5034952;28;19963;-67
2022/10/21 11:03:05;;;;;;;;;;;17.60;99.90;;;;;;5034917;28;19905;-66
2022/10/21 11:05:35;;;;;;;;;;;17.60;99.90;;;;;;5034349;28;19911;-67
2022/10/21 11:08:04;;;;;;;;;;;17.60;99.90;;;;;;5033401;28;19912;-66
2022/10/21 11:10:32;;;;;;;;;;;17.70;99.90;;;;;;5035005;28;19909;-65
2022/10/21 11:13:02;;;;;;;;;;;17.80;99.90;;;;;;5033155;28;19905;-66
2022/10/21 11:15:40;;;;;;;;;;;17.80;99.90;;;;;;5034700;28;19996;-65
2022/10/21 11:18:17;;;;;;;;;;;17.80;99.90;;;;;;5034402;28;19955;-65
2022/10/21 11:20:54;;;;;;;;;;;17.90;99.90;;;;;;5032728;28;19921;-65
2022/10/21 11:23:35;;;;;;;;;;;17.90;99.90;;;;;;5032774;28;20328;-66
2022/10/21 11:26:00;;;;;;;;;;;18.00;99.90;;;;;;5034322;28;19904;-65
2022/10/21 11:28:28;;;;;;;;;;;18.10;99.90;;;;;;5033962;28;19942;-65
2022/10/21 11:31:08;;;;;;;;;;;18.10;99.90;;;;;;5034267;28;19905;-65
2022/10/21 11:33:51;;;;;;;;;;;18.10;99.90;;;;;;5033786;28;19971;-65
2022/10/21 11:36:22;;;;;;;;;;;18.20;99.90;;;;;;5054088;23;19926;-69
2022/10/21 11:39:11;;;;;;;;;;;18.20;99.90;;;;;;5014951;28;19909;-69
2022/10/21 11:41:44;;;;;;;;;;;18.20;99.90;;;;;;5010959;28;19905;-69
2022/10/21 11:44:24;;;;;;;;;;;18.20;99.90;;;;;;5015394;28;19949;-70
2022/10/21 11:47:05;;;;;;;;;;;18.30;99.90;;;;;;5014890;28;19964;-68
2022/10/21 11:49:40;;;;;;;;;;;18.20;99.90;;;;;;5029872;28;20212;-68
2022/10/21 11:52:08;;;;;;;;;;;18.20;99.90;;;;;;5013164;28;19905;-69
2022/10/21 11:54:33;;;;;;;;;;;18.40;99.90;;;;;;5014390;28;19952;-68
2022/10/21 11:57:11;;;;;;;;;;;18.50;99.90;;;;;;5014283;28;19906;-69
2022/10/21 11:59:52;;;;;;;;;;;18.50;99.90;;;;;;5014554;28;20346;-69
2022/10/21 12:02:17;;;;;;;;;;;18.50;99.90;;;;;;5014400;28;19959;-69
2022/10/21 12:04:46;;;;;;;;;;;18.50;99.90;;;;;;5029531;28;19905;-69
2022/10/21 12:07:14;;;;;;;;;;;18.70;99.90;;;;;;5035994;28;19935;-69
2022/10/21 12:09:44;;;;;;;;;;;18.70;99.90;;;;;;5014329;28;19911;-68
2022/10/21 12:12:15;;;;;;;;;;;18.60;99.90;;;;;;5012789;28;20004;-68
2022/10/21 12:14:48;;;;;;;;;;;18.60;99.90;;;;;;5013961;28;20051;-69
2022/10/21 12:17:18;;;;;;;;;;;18.60;99.90;;;;;;5014007;28;19975;-69
2022/10/21 12:19:46;;;;;;;;;;;18.60;99.90;;;;;;5013936;28;19909;-69
2022/10/21 12:22:12;;;;;;;;;;;18.70;99.90;;;;;;5014022;28;19905;-68
2022/10/21 12:24:51;;;;;;;;;;;18.80;99.90;;;;;;5012695;28;19913;-69
2022/10/21 12:27:35;;;;;;;;;;;18.80;99.90;;;;;;5012855;28;20282;-69
2022/10/21 12:30:24;;;;;;;;;;;18.70;99.90;;;;;;5014343;28;19913;-69
2022/10/21 12:33:01;;;;;;;;;;;18.80;99.90;;;;;;5011113;28;20277;-69
2022/10/21 12:35:59;;;;;;;;;;;18.70;99.90;;;;;;5014465;28;19913;-69
2022/10/21 12:38:40;;;;;;;;;;;18.80;99.90;;;;;;4992318;28;19905;-68
2022/10/21 12:41:38;;;;;;;;;;;18.80;99.90;;;;;;4993530;28;19910;-69
2022/10/21 12:44:10;;;;;;;;;;;18.90;99.90;;;;;;4935411;28;19907;-70
2022/10/21 12:46:37;;;;;;;;;;;19.00;99.90;;;;;;4934407;29;19907;-69
2022/10/21 12:49:17;;;;;;;;;;;19.00;99.90;;;;;;4934545;29;19910;-71
2022/10/21 12:51:47;;;;;;;;;;;18.90;99.90;;;;;;4934265;29;19915;-72
2022/10/21 12:54:14;;;;;;;;;;;19.00;99.90;;;;;;4934513;29;19910;-71
2022/10/21 12:56:45;;;;;;;;;;;19.10;99.90;;;;;;4934967;29;19969;-70
2022/10/21 12:59:30;;;;;;;;;;;19.00;99.90;;;;;;4937793;29;20437;-70
2022/10/21 13:02:04;;;;;;;;;;;18.70;99.90;;;;;;4938162;29;19907;-73
2022/10/21 13:04:30;;;;;;;;;;;18.90;99.90;;;;;;4938080;29;19914;-73
2022/10/21 13:06:56;;;;;;;;;;;18.90;99.90;;;;;;4938352;29;19907;-73
2022/10/21 13:09:33;;;;;;;;;;;19.00;99.90;;;;;;4922653;29;19907;-73
2022/10/21 13:12:07;;;;;;;;;;;19.00;99.90;;;;;;4938282;29;20432;-75
2022/10/21 13:14:46;;;;;;;;;;;19.00;99.90;;;;;;4952563;29;19914;-74
2022/10/21 13:17:20;;;;;;;;;;;19.00;99.90;;;;;;4941536;29;19918;-70
2022/10/21 13:19:53;;;;;;;;;;;19.00;99.90;;;;;;4981608;28;19917;-70
2022/10/21 13:22:21;;;;;;;;;;;19.00;99.90;;;;;;5017392;28;19905;-69
2022/10/21 13:24:47;;;;;;;;;;;19.00;99.90;;;;;;5015864;28;19949;-69
2022/10/21 13:27:30;;;;;;;;;;;19.00;99.90;;;;;;5015455;28;19909;-70
2022/10/21 13:29:56;;;;;;;;;;;19.10;99.90;;;;;;5016889;28;19960;-70
2022/10/21 13:32:24;;;;;;;;;;;19.10;99.90;;;;;;5015936;28;19916;-69
2022/10/21 13:34:49;;;;;;;;;;;19.10;99.90;;;;;;5017416;28;19905;-70
2022/10/21 13:37:15;;;;;;;;;;;19.10;99.90;;;;;;5027513;28;19999;-70
2022/10/21 13:39:41;;;;;;;;;;;19.10;99.90;;;;;;5035277;28;19928;-69
2022/10/21 13:42:10;;;;;;;;;;;19.10;99.90;;;;;;5036451;28;19916;-70
2022/10/21 13:44:38;;;;;;;;;;;19.20;99.90;;;;;;5036518;28;19959;-70
2022/10/21 13:47:18;;;;;;;;;;;19.10;99.90;;;;;;5036150;28;19905;-70
2022/10/21 13:49:52;;;;;;;;;;;19.10;99.90;;;;;;5036607;28;19911;-70
2022/10/21 13:52:17;;;;;;;;;;;19.10;99.90;;;;;;5036291;28;20309;-70
2022/10/21 13:54:43;;;;;;;;;;;19.10;99.90;;;;;;5036741;28;19912;-70
2022/10/21 13:57:08;;;;;;;;;;;19.10;99.90;;;;;;5036246;28;19905;-70
2022/10/21 13:59:34;;;;;;;;;;;19.00;99.90;;;;;;5034669;28;19967;-69
2022/10/21 14:01:59;;;;;;;;;;;19.10;99.90;;;;;;5036015;28;19912;-70
2022/10/21 14:04:26;;;;;;;;;;;19.00;99.90;;;;;;5035925;28;19913;-69
2022/10/21 14:06:52;;;;;;;;;;;19.00;99.90;;;;;;5034374;28;20386;-69
2022/10/21 14:09:19;;;;;;;;;;;19.10;99.90;;;;;;5033500;28;19912;-69
2022/10/21 14:11:47;;;;;;;;;;;19.00;99.90;;;;;;5035945;28;19963;-69
2022/10/21 14:14:14;;;;;;;;;;;19.00;99.90;;;;;;5034481;28;19916;-68
2022/10/21 14:16:42;;;;;;;;;;;19.00;99.90;;;;;;5035581;28;19905;-69
2022/10/21 14:19:15;;;;;;;;;;;18.90;99.90;;;;;;5035653;28;19916;-71
2022/10/21 14:21:42;;;;;;;;;;;18.90;99.90;;;;;;5036065;28;19905;-71
2022/10/21 14:24:23;;;;;;;;;;;18.90;99.90;;;;;;5034493;28;19914;-70